Terminal Aerodrome Forecast
Issued by NWS Binghamton, NY

Home | Current Version | Previous Version | Text Only | Print | Product List | Glossary On
Versions: 1 2 3 4 5 6 7 8 9 10 11 12 13 14 15 16 17 18 19 20
000
FTUS41 KBGM 292325
TAFAVP
TAF
KAVP 292325Z 3000/3024 22006KT P6SM SKC
     FM300300 20005KT P6SM SCT100 BKN200
     FM300800 22003KT 6SM BR SCT025
      TEMPO 3008/3012 4SM BR OVC025
     FM301500 24007KT P6SM SCT040 BKN080
      TEMPO 3015/3018 -SHRA OVC040
     FM302000 29007KT P6SM SCT050 BKN250=

USA.gov is the U.S. government's official web portal to all federal, state and local government web resources and services.